Terminal Aerodrome Forecast
Issued by NWS

Home | Current Version | Previous Version | Text Only | Print | Product List | Glossary On
Versions: 1 2 3 4 5 6 7 8 9 10 11 12 13
908
FTUS42 KMLB 082337
TAFSUA
TAF
KSUA 082337Z 0900/0924 24011KT P6SM SCT050 BKN200 WS015/25032KT
     FM090700 26014G23KT P6SM BKN050
     FM091700 28017G28KT P6SM BKN050=

USA.gov is the U.S. government's official web portal to all federal, state and local government web resources and services.